sensor_id;sensor_type;location;lat;lon;timestamp;pressure;altitude;pressure_sealevel;temperature;humidity
77323;BME280;66384;51.052;9.850;2023-04-15T00:00:09;97725.56;;;6.25;64.94
77323;BME280;66384;51.052;9.850;2023-04-15T00:02:39;97729.20;;;6.14;64.98
77323;BME280;66384;51.052;9.850;2023-04-15T00:05:09;97728.62;;;6.00;65.11
77323;BME280;66384;51.052;9.850;2023-04-15T00:07:38;97729.25;;;5.92;65.33
77323;BME280;66384;51.052;9.850;2023-04-15T00:10:09;97726.43;;;5.89;65.41
77323;BME280;66384;51.052;9.850;2023-04-15T00:12:38;97724.22;;;5.90;65.47
77323;BME280;66384;51.052;9.850;2023-04-15T00:15:09;97728.55;;;5.92;65.44
77323;BME280;66384;51.052;9.850;2023-04-15T00:17:39;97722.73;;;5.92;65.29
77323;BME280;66384;51.052;9.850;2023-04-15T00:20:10;97724.88;;;5.89;65.15
77323;BME280;66384;51.052;9.850;2023-04-15T00:22:39;97724.74;;;5.84;64.98
77323;BME280;66384;51.052;9.850;2023-04-15T00:25:09;97723.58;;;5.80;65.05
77323;BME280;66384;51.052;9.850;2023-04-15T00:27:38;97723.77;;;5.75;65.17
77323;BME280;66384;51.052;9.850;2023-04-15T00:30:09;97721.13;;;5.72;65.19
77323;BME280;66384;51.052;9.850;2023-04-15T00:32:38;97719.06;;;5.71;65.19
77323;BME280;66384;51.052;9.850;2023-04-15T00:35:09;97717.52;;;5.71;65.33
77323;BME280;66384;51.052;9.850;2023-04-15T00:37:39;97715.59;;;5.69;65.37
77323;BME280;66384;51.052;9.850;2023-04-15T00:40:12;97713.48;;;5.67;65.51
77323;BME280;66384;51.052;9.850;2023-04-15T00:42:42;97720.92;;;5.65;65.63
77323;BME280;66384;51.052;9.850;2023-04-15T00:45:12;97719.73;;;5.65;65.40
77323;BME280;66384;51.052;9.850;2023-04-15T00:47:43;97719.73;;;5.59;65.38
77323;BME280;66384;51.052;9.850;2023-04-15T00:50:13;97720.63;;;5.55;65.49
77323;BME280;66384;51.052;9.850;2023-04-15T00:52:42;97717.70;;;5.54;65.72
77323;BME280;66384;51.052;9.850;2023-04-15T00:55:11;97717.02;;;5.54;65.77
77323;BME280;66384;51.052;9.850;2023-04-15T00:57:41;97717.72;;;5.55;65.88
77323;BME280;66384;51.052;9.850;2023-04-15T01:00:12;97716.69;;;5.54;65.70
77323;BME280;66384;51.052;9.850;2023-04-15T01:02:41;97720.59;;;5.54;65.80
77323;BME280;66384;51.052;9.850;2023-04-15T01:05:11;97720.60;;;5.54;65.89
77323;BME280;66384;51.052;9.850;2023-04-15T01:07:40;97718.90;;;5.48;65.69
77323;BME280;66384;51.052;9.850;2023-04-15T01:10:11;97715.50;;;5.37;65.84
77323;BME280;66384;51.052;9.850;2023-04-15T01:12:40;97716.94;;;5.35;66.13
77323;BME280;66384;51.052;9.850;2023-04-15T01:15:10;97714.27;;;5.36;66.20
77323;BME280;66384;51.052;9.850;2023-04-15T01:17:40;97716.23;;;5.40;66.37
77323;BME280;66384;51.052;9.850;2023-04-15T01:20:10;97714.14;;;5.43;66.45
77323;BME280;66384;51.052;9.850;2023-04-15T01:22:39;97711.31;;;5.46;66.49
77323;BME280;66384;51.052;9.850;2023-04-15T01:25:11;97709.04;;;5.43;66.44
77323;BME280;66384;51.052;9.850;2023-04-15T01:27:41;97704.05;;;5.42;66.51
77323;BME280;66384;51.052;9.850;2023-04-15T01:30:11;97704.58;;;5.43;66.56
77323;BME280;66384;51.052;9.850;2023-04-15T01:32:40;97701.42;;;5.45;66.58
77323;BME280;66384;51.052;9.850;2023-04-15T01:35:10;97703.91;;;5.49;66.85
77323;BME280;66384;51.052;9.850;2023-04-15T01:37:39;97704.19;;;5.53;66.58
77323;BME280;66384;51.052;9.850;2023-04-15T01:40:10;97703.41;;;5.55;66.68
77323;BME280;66384;51.052;9.850;2023-04-15T01:42:40;97699.60;;;5.59;66.63
77323;BME280;66384;51.052;9.850;2023-04-15T01:45:11;97699.40;;;5.64;66.73
77323;BME280;66384;51.052;9.850;2023-04-15T01:47:40;97696.25;;;5.67;66.61
77323;BME280;66384;51.052;9.850;2023-04-15T01:50:11;97693.42;;;5.69;66.62
77323;BME280;66384;51.052;9.850;2023-04-15T01:52:41;97688.99;;;5.69;66.65
77323;BME280;66384;51.052;9.850;2023-04-15T01:55:10;97689.02;;;5.71;66.62
77323;BME280;66384;51.052;9.850;2023-04-15T01:57:40;97687.77;;;5.74;66.64
77323;BME280;66384;51.052;9.850;2023-04-15T02:00:11;97688.69;;;5.77;66.60
77323;BME280;66384;51.052;9.850;2023-04-15T02:02:40;97687.30;;;5.76;66.73
77323;BME280;66384;51.052;9.850;2023-04-15T02:05:09;97685.23;;;5.75;66.67
77323;BME280;66384;51.052;9.850;2023-04-15T02:07:39;97681.84;;;5.70;66.85
77323;BME280;66384;51.052;9.850;2023-04-15T02:10:09;97682.27;;;5.66;66.93
77323;BME280;66384;51.052;9.850;2023-04-15T02:12:40;97680.57;;;5.67;67.06
77323;BME280;66384;51.052;9.850;2023-04-15T02:15:10;97674.83;;;5.69;67.05
77323;BME280;66384;51.052;9.850;2023-04-15T02:17:40;97672.68;;;5.72;67.17
77323;BME280;66384;51.052;9.850;2023-04-15T02:20:13;97671.17;;;5.73;67.06
77323;BME280;66384;51.052;9.850;2023-04-15T02:22:42;97672.93;;;5.75;67.08
77323;BME280;66384;51.052;9.850;2023-04-15T02:25:11;97675.52;;;5.76;67.19
77323;BME280;66384;51.052;9.850;2023-04-15T02:27:41;97675.58;;;5.78;67.18
77323;BME280;66384;51.052;9.850;2023-04-15T02:30:11;97674.55;;;5.78;67.13
77323;BME280;66384;51.052;9.850;2023-04-15T02:32:40;97672.48;;;5.77;67.32
77323;BME280;66384;51.052;9.850;2023-04-15T02:35:11;97673.02;;;5.77;67.35
77323;BME280;66384;51.052;9.850;2023-04-15T02:37:41;97675.27;;;5.79;67.47
77323;BME280;66384;51.052;9.850;2023-04-15T02:40:13;97677.16;;;5.79;67.47
77323;BME280;66384;51.052;9.850;2023-04-15T02:42:42;97679.90;;;5.80;67.52
77323;BME280;66384;51.052;9.850;2023-04-15T02:45:12;97681.45;;;5.80;67.62
77323;BME280;66384;51.052;9.850;2023-04-15T02:47:42;97680.77;;;5.80;67.62
77323;BME280;66384;51.052;9.850;2023-04-15T02:50:13;97682.15;;;5.81;67.52
77323;BME280;66384;51.052;9.850;2023-04-15T02:52:42;97684.71;;;5.81;67.78
77323;BME280;66384;51.052;9.850;2023-04-15T02:55:12;97686.25;;;5.81;67.70
77323;BME280;66384;51.052;9.850;2023-04-15T02:57:42;97688.82;;;5.82;67.57
77323;BME280;66384;51.052;9.850;2023-04-15T03:00:13;97689.80;;;5.80;67.65
77323;BME280;66384;51.052;9.850;2023-04-15T03:02:45;97692.90;;;5.81;67.57
77323;BME280;66384;51.052;9.850;2023-04-15T03:05:16;97695.46;;;5.81;67.67
77323;BME280;66384;51.052;9.850;2023-04-15T03:07:45;97693.05;;;5.80;67.65
77323;BME280;66384;51.052;9.850;2023-04-15T03:10:15;97690.95;;;5.78;67.71
77323;BME280;66384;51.052;9.850;2023-04-15T03:12:44;97689.83;;;5.75;67.76
77323;BME280;66384;51.052;9.850;2023-04-15T03:15:13;97685.48;;;5.72;67.87
77323;BME280;66384;51.052;9.850;2023-04-15T03:17:43;97682.75;;;5.72;67.97
77323;BME280;66384;51.052;9.850;2023-04-15T03:20:13;97681.79;;;5.74;67.92
77323;BME280;66384;51.052;9.850;2023-04-15T03:22:42;97682.98;;;5.74;67.92
77323;BME280;66384;51.052;9.850;2023-04-15T03:25:11;97681.09;;;5.74;68.05
77323;BME280;66384;51.052;9.850;2023-04-15T03:27:41;97675.27;;;5.73;67.98
77323;BME280;66384;51.052;9.850;2023-04-15T03:30:12;97675.23;;;5.72;68.05
77323;BME280;66384;51.052;9.850;2023-04-15T03:32:41;97675.39;;;5.71;68.18
77323;BME280;66384;51.052;9.850;2023-04-15T03:35:10;97682.25;;;5.73;68.11
77323;BME280;66384;51.052;9.850;2023-04-15T03:37:40;97674.91;;;5.72;68.12
77323;BME280;66384;51.052;9.850;2023-04-15T03:40:11;97672.39;;;5.73;68.22
77323;BME280;66384;51.052;9.850;2023-04-15T03:42:40;97679.07;;;5.75;68.22
77323;BME280;66384;51.052;9.850;2023-04-15T03:45:10;97678.57;;;5.75;68.22
77323;BME280;66384;51.052;9.850;2023-04-15T03:47:40;97676.70;;;5.76;68.34
77323;BME280;66384;51.052;9.850;2023-04-15T03:50:10;97676.27;;;5.78;68.38
77323;BME280;66384;51.052;9.850;2023-04-15T03:52:39;97676.87;;;5.81;68.44
77323;BME280;66384;51.052;9.850;2023-04-15T03:55:09;97674.38;;;5.83;68.39
77323;BME280;66384;51.052;9.850;2023-04-15T03:57:38;97671.66;;;5.84;68.47
77323;BME280;66384;51.052;9.850;2023-04-15T04:00:09;97668.44;;;5.85;68.32
77323;BME280;66384;51.052;9.850;2023-04-15T04:02:38;97671.88;;;5.80;68.34
77323;BME280;66384;51.052;9.850;2023-04-15T04:05:08;97672.98;;;5.77;68.41
77323;BME280;66384;51.052;9.850;2023-04-15T04:07:38;97672.44;;;5.76;68.56
77323;BME280;66384;51.052;9.850;2023-04-15T04:10:08;97671.60;;;5.76;68.66
77323;BME280;66384;51.052;9.850;2023-04-15T04:12:38;97674.73;;;5.78;68.83
77323;BME280;66384;51.052;9.850;2023-04-15T04:15:08;97675.55;;;5.77;68.74
77323;BME280;66384;51.052;9.850;2023-04-15T04:17:36;97681.20;;;5.77;68.83
77323;BME280;66384;51.052;9.850;2023-04-15T04:20:07;97683.11;;;5.79;68.86
77323;BME280;66384;51.052;9.850;2023-04-15T04:22:39;97682.96;;;5.79;68.73
77323;BME280;66384;51.052;9.850;2023-04-15T04:25:09;97684.71;;;5.80;68.77
77323;BME280;66384;51.052;9.850;2023-04-15T04:27:39;97684.39;;;5.81;68.83
77323;BME280;66384;51.052;9.850;2023-04-15T04:30:09;97683.95;;;5.84;68.80
77323;BME280;66384;51.052;9.850;2023-04-15T04:32:38;97687.95;;;5.86;68.81
77323;BME280;66384;51.052;9.850;2023-04-15T04:35:09;97686.06;;;5.86;68.74
77323;BME280;66384;51.052;9.850;2023-04-15T04:37:38;97691.42;;;5.89;68.78
77323;BME280;66384;51.052;9.850;2023-04-15T04:40:10;97688.02;;;5.90;68.70
77323;BME280;66384;51.052;9.850;2023-04-15T04:42:39;97694.06;;;5.91;68.81
77323;BME280;66384;51.052;9.850;2023-04-15T04:45:09;97692.52;;;5.91;68.64
77323;BME280;66384;51.052;9.850;2023-04-15T04:47:39;97688.77;;;5.91;68.69
77323;BME280;66384;51.052;9.850;2023-04-15T04:50:09;97688.84;;;5.93;68.82
77323;BME280;66384;51.052;9.850;2023-04-15T04:52:39;97690.89;;;5.93;68.75
77323;BME280;66384;51.052;9.850;2023-04-15T04:55:08;97688.94;;;5.97;68.85
77323;BME280;66384;51.052;9.850;2023-04-15T04:57:38;97683.04;;;5.99;69.02
77323;BME280;66384;51.052;9.850;2023-04-15T05:00:10;97684.83;;;6.02;69.04
77323;BME280;66384;51.052;9.850;2023-04-15T05:02:39;97685.39;;;6.04;68.96
77323;BME280;66384;51.052;9.850;2023-04-15T05:05:11;97691.64;;;6.08;69.04
77323;BME280;66384;51.052;9.850;2023-04-15T05:07:41;97686.88;;;6.08;69.21
77323;BME280;66384;51.052;9.850;2023-04-15T05:10:10;97687.45;;;6.10;69.25
77323;BME280;66384;51.052;9.850;2023-04-15T05:12:41;97690.59;;;6.13;69.35
77323;BME280;66384;51.052;9.850;2023-04-15T05:15:11;97690.17;;;6.17;69.62
77323;BME280;66384;51.052;9.850;2023-04-15T05:17:40;97691.66;;;6.21;69.95
77323;BME280;66384;51.052;9.850;2023-04-15T05:20:11;97691.40;;;6.24;70.22
77323;BME280;66384;51.052;9.850;2023-04-15T05:22:40;97692.20;;;6.28;70.35
77323;BME280;66384;51.052;9.850;2023-04-15T05:25:09;97693.31;;;6.32;70.83
77323;BME280;66384;51.052;9.850;2023-04-15T05:27:39;97693.77;;;6.36;70.55
77323;BME280;66384;51.052;9.850;2023-04-15T05:30:10;97691.86;;;6.42;70.74
77323;BME280;66384;51.052;9.850;2023-04-15T05:32:40;97693.19;;;6.47;70.75
77323;BME280;66384;51.052;9.850;2023-04-15T05:35:09;97689.41;;;6.53;70.89
77323;BME280;66384;51.052;9.850;2023-04-15T05:37:39;97686.83;;;6.58;70.75
77323;BME280;66384;51.052;9.850;2023-04-15T05:40:09;97689.85;;;6.63;70.82
77323;BME280;66384;51.052;9.850;2023-04-15T05:42:38;97692.88;;;6.68;70.60
77323;BME280;66384;51.052;9.850;2023-04-15T05:45:09;97695.94;;;6.75;70.61
77323;BME280;66384;51.052;9.850;2023-04-15T05:47:37;97700.71;;;6.80;70.65
77323;BME280;66384;51.052;9.850;2023-04-15T05:50:07;97702.54;;;6.85;70.96
77323;BME280;66384;51.052;9.850;2023-04-15T05:52:37;97703.45;;;6.87;70.83
77323;BME280;66384;51.052;9.850;2023-04-15T05:55:07;97700.23;;;6.89;70.85
77323;BME280;66384;51.052;9.850;2023-04-15T05:57:36;97703.52;;;6.91;71.03
77323;BME280;66384;51.052;9.850;2023-04-15T06:00:07;97706.66;;;6.93;71.04
77323;BME280;66384;51.052;9.850;2023-04-15T06:02:36;97705.55;;;6.97;71.01
77323;BME280;66384;51.052;9.850;2023-04-15T06:05:06;97705.31;;;7.01;71.06
77323;BME280;66384;51.052;9.850;2023-04-15T06:07:36;97703.17;;;7.04;70.91
77323;BME280;66384;51.052;9.850;2023-04-15T06:10:08;97704.45;;;7.07;70.97
77323;BME280;66384;51.052;9.850;2023-04-15T06:12:37;97705.54;;;7.11;70.96
77323;BME280;66384;51.052;9.850;2023-04-15T06:15:08;97707.79;;;7.12;70.93
77323;BME280;66384;51.052;9.850;2023-04-15T06:17:38;97705.80;;;7.14;71.00
77323;BME280;66384;51.052;9.850;2023-04-15T06:20:08;97710.97;;;7.16;70.89
77323;BME280;66384;51.052;9.850;2023-04-15T06:22:38;97712.06;;;7.19;71.10
77323;BME280;66384;51.052;9.850;2023-04-15T06:25:09;97711.44;;;7.21;71.07
77323;BME280;66384;51.052;9.850;2023-04-15T06:27:38;97713.52;;;7.23;70.80
77323;BME280;66384;51.052;9.850;2023-04-15T06:30:09;97711.36;;;7.25;70.85
77323;BME280;66384;51.052;9.850;2023-04-15T06:32:39;97710.14;;;7.24;70.93
77323;BME280;66384;51.052;9.850;2023-04-15T06:35:09;97712.89;;;7.25;70.94
77323;BME280;66384;51.052;9.850;2023-04-15T06:37:38;97714.27;;;7.26;71.03
77323;BME280;66384;51.052;9.850;2023-04-15T06:40:10;97713.44;;;7.27;71.06
77323;BME280;66384;51.052;9.850;2023-04-15T06:42:39;97715.39;;;7.29;71.06
77323;BME280;66384;51.052;9.850;2023-04-15T06:45:10;97714.95;;;7.33;71.11
77323;BME280;66384;51.052;9.850;2023-04-15T06:47:39;97716.38;;;7.35;71.04
77323;BME280;66384;51.052;9.850;2023-04-15T06:50:10;97712.64;;;7.37;71.17
77323;BME280;66384;51.052;9.850;2023-04-15T06:52:39;97709.20;;;7.35;71.46
77323;BME280;66384;51.052;9.850;2023-04-15T06:55:09;97708.84;;;7.35;71.21
77323;BME280;66384;51.052;9.850;2023-04-15T06:57:39;97711.05;;;7.34;71.47
77323;BME280;66384;51.052;9.850;2023-04-15T07:00:10;97711.05;;;7.34;71.34
77323;BME280;66384;51.052;9.850;2023-04-15T07:02:39;97711.90;;;7.34;71.36
77323;BME280;66384;51.052;9.850;2023-04-15T07:05:09;97710.55;;;7.34;71.57
77323;BME280;66384;51.052;9.850;2023-04-15T07:07:38;97705.61;;;7.36;71.61
77323;BME280;66384;51.052;9.850;2023-04-15T07:10:09;97704.09;;;7.37;71.53
77323;BME280;66384;51.052;9.850;2023-04-15T07:12:39;97711.02;;;7.40;71.58
77323;BME280;66384;51.052;9.850;2023-04-15T07:15:09;97714.50;;;7.43;71.61
77323;BME280;66384;51.052;9.850;2023-04-15T07:17:39;97718.30;;;7.45;71.75
77323;BME280;66384;51.052;9.850;2023-04-15T07:20:10;97718.14;;;7.45;71.48
77323;BME280;66384;51.052;9.850;2023-04-15T07:22:39;97714.96;;;7.48;71.77
77323;BME280;66384;51.052;9.850;2023-04-15T07:25:09;97718.16;;;7.53;71.60
77323;BME280;66384;51.052;9.850;2023-04-15T07:27:39;97715.99;;;7.57;71.41
77323;BME280;66384;51.052;9.850;2023-04-15T07:30:10;97710.05;;;7.59;71.36
77323;BME280;66384;51.052;9.850;2023-04-15T07:32:39;97711.17;;;7.63;71.20
77323;BME280;66384;51.052;9.850;2023-04-15T07:35:10;97708.17;;;7.66;71.32
77323;BME280;66384;51.052;9.850;2023-04-15T07:37:40;97707.91;;;7.70;71.14
77323;BME280;66384;51.052;9.850;2023-04-15T07:40:11;97707.39;;;7.70;71.05
77323;BME280;66384;51.052;9.850;2023-04-15T07:42:41;97708.96;;;7.71;71.11
77323;BME280;66384;51.052;9.850;2023-04-15T07:45:11;97705.84;;;7.68;70.82
77323;BME280;66384;51.052;9.850;2023-04-15T07:47:40;97703.23;;;7.67;70.83
77323;BME280;66384;51.052;9.850;2023-04-15T07:50:11;97701.96;;;7.64;71.02
77323;BME280;66384;51.052;9.850;2023-04-15T07:52:40;97712.91;;;7.63;71.04
77323;BME280;66384;51.052;9.850;2023-04-15T07:55:10;97712.58;;;7.64;71.32
77323;BME280;66384;51.052;9.850;2023-04-15T07:57:39;97711.55;;;7.64;71.42
77323;BME280;66384;51.052;9.850;2023-04-15T08:00:10;97708.64;;;7.64;71.54
77323;BME280;66384;51.052;9.850;2023-04-15T08:02:40;97702.95;;;7.62;71.19
77323;BME280;66384;51.052;9.850;2023-04-15T08:05:10;97702.86;;;7.58;71.39
77323;BME280;66384;51.052;9.850;2023-04-15T08:07:39;97703.02;;;7.58;71.30
77323;BME280;66384;51.052;9.850;2023-04-15T08:10:09;97705.33;;;7.61;71.53
77323;BME280;66384;51.052;9.850;2023-04-15T08:12:39;97704.71;;;7.64;71.39
77323;BME280;66384;51.052;9.850;2023-04-15T08:15:09;97706.83;;;7.67;71.67
77323;BME280;66384;51.052;9.850;2023-04-15T08:17:40;97711.19;;;7.71;71.33
77323;BME280;66384;51.052;9.850;2023-04-15T08:20:10;97715.33;;;7.72;71.37
77323;BME280;66384;51.052;9.850;2023-04-15T08:22:38;97715.17;;;7.73;71.29
77323;BME280;66384;51.052;9.850;2023-04-15T08:25:08;97716.55;;;7.74;71.27
77323;BME280;66384;51.052;9.850;2023-04-15T08:27:38;97715.53;;;7.74;71.25
77323;BME280;66384;51.052;9.850;2023-04-15T08:30:09;97717.73;;;7.72;71.31
77323;BME280;66384;51.052;9.850;2023-04-15T08:32:38;97719.08;;;7.72;71.52
77323;BME280;66384;51.052;9.850;2023-04-15T08:35:09;97718.80;;;7.75;71.60
77323;BME280;66384;51.052;9.850;2023-04-15T08:37:38;97718.38;;;7.80;71.71
77323;BME280;66384;51.052;9.850;2023-04-15T08:40:09;97717.66;;;7.86;71.60
77323;BME280;66384;51.052;9.850;2023-04-15T08:42:43;97724.09;;;7.91;71.44
77323;BME280;66384;51.052;9.850;2023-04-15T08:45:12;97727.41;;;7.93;71.36
77323;BME280;66384;51.052;9.850;2023-04-15T08:47:43;97722.23;;;7.92;71.23
77323;BME280;66384;51.052;9.850;2023-04-15T08:50:14;97720.64;;;7.89;71.39
77323;BME280;66384;51.052;9.850;2023-04-15T08:52:43;97724.70;;;7.87;71.62
77323;BME280;66384;51.052;9.850;2023-04-15T08:55:12;97724.74;;;7.81;71.43
77323;BME280;66384;51.052;9.850;2023-04-15T08:57:42;97726.91;;;7.79;71.53
77323;BME280;66384;51.052;9.850;2023-04-15T09:00:13;97726.70;;;7.76;71.48
77323;BME280;66384;51.052;9.850;2023-04-15T09:02:44;97731.59;;;7.73;71.59
77323;BME280;66384;51.052;9.850;2023-04-15T09:05:13;97728.48;;;7.71;71.90
77323;BME280;66384;51.052;9.850;2023-04-15T09:07:43;97732.73;;;7.70;72.03
77323;BME280;66384;51.052;9.850;2023-04-15T09:10:13;97732.18;;;7.68;71.94
77323;BME280;66384;51.052;9.850;2023-04-15T09:12:42;97730.96;;;7.67;72.16
77323;BME280;66384;51.052;9.850;2023-04-15T09:15:12;97734.87;;;7.66;72.18
77323;BME280;66384;51.052;9.850;2023-04-15T09:17:44;97735.54;;;7.65;71.98
77323;BME280;66384;51.052;9.850;2023-04-15T09:20:15;97737.56;;;7.64;72.00
77323;BME280;66384;51.052;9.850;2023-04-15T09:22:47;97743.34;;;7.63;72.19
77323;BME280;66384;51.052;9.850;2023-04-15T09:25:25;97739.40;;;7.62;72.52
77323;BME280;66384;51.052;9.850;2023-04-15T09:27:56;97744.86;;;7.62;72.46
77323;BME280;66384;51.052;9.850;2023-04-15T09:30:26;97751.17;;;7.60;72.45
77323;BME280;66384;51.052;9.850;2023-04-15T09:32:56;97757.46;;;7.59;72.56
77323;BME280;66384;51.052;9.850;2023-04-15T09:35:27;97756.02;;;7.56;72.62
77323;BME280;66384;51.052;9.850;2023-04-15T09:38:03;97755.64;;;7.54;72.52
77323;BME280;66384;51.052;9.850;2023-04-15T09:40:34;97762.86;;;7.56;72.87
77323;BME280;66384;51.052;9.850;2023-04-15T09:43:03;97764.75;;;7.56;72.85
77323;BME280;66384;51.052;9.850;2023-04-15T09:45:34;97761.17;;;7.57;72.83
77323;BME280;66384;51.052;9.850;2023-04-15T09:48:17;97763.58;;;7.57;72.89
77323;BME280;66384;51.052;9.850;2023-04-15T09:50:48;97762.79;;;7.60;72.92
77323;BME280;66384;51.052;9.850;2023-04-15T09:53:22;97764.21;;;7.61;72.94
77323;BME280;66384;51.052;9.850;2023-04-15T09:55:50;97764.02;;;7.62;73.10
77323;BME280;66384;51.052;9.850;2023-04-15T09:58:20;97762.17;;;7.63;73.09
77323;BME280;66384;51.052;9.850;2023-04-15T10:00:51;97763.06;;;7.65;73.47
77323;BME280;66384;51.052;9.850;2023-04-15T10:03:22;97762.20;;;7.64;73.49
77323;BME280;66384;51.052;9.850;2023-04-15T10:05:54;97763.23;;;7.64;73.46
77323;BME280;66384;51.052;9.850;2023-04-15T10:08:25;97764.94;;;7.63;73.47
77323;BME280;66384;51.052;9.850;2023-04-15T10:10:56;97769.42;;;7.65;73.48
77323;BME280;66384;51.052;9.850;2023-04-15T10:13:28;97770.86;;;7.69;73.65
77323;BME280;66384;51.052;9.850;2023-04-15T10:16:03;97775.08;;;7.73;73.63
77323;BME280;66384;51.052;9.850;2023-04-15T10:18:37;97771.86;;;7.75;73.45
77323;BME280;66384;51.052;9.850;2023-04-15T10:21:09;97768.70;;;7.79;73.47
77323;BME280;66384;51.052;9.850;2023-04-15T10:23:39;97769.80;;;7.83;73.49
77323;BME280;66384;51.052;9.850;2023-04-15T10:26:10;97771.45;;;7.87;73.52
77323;BME280;66384;51.052;9.850;2023-04-15T10:28:42;97780.38;;;7.88;73.62
77323;BME280;66384;51.052;9.850;2023-04-15T10:31:12;97780.26;;;7.91;73.46
77323;BME280;66384;51.052;9.850;2023-04-15T10:33:44;97785.92;;;7.92;73.49
77323;BME280;66384;51.052;9.850;2023-04-15T10:36:16;97786.65;;;7.94;73.57
77323;BME280;66384;51.052;9.850;2023-04-15T10:38:47;97792.13;;;7.93;73.54
77323;BME280;66384;51.052;9.850;2023-04-15T10:41:19;97795.94;;;7.95;73.36
77323;BME280;66384;51.052;9.850;2023-04-15T10:43:52;97799.69;;;7.95;73.07
77323;BME280;66384;51.052;9.850;2023-04-15T10:46:36;97798.27;;;7.93;73.33
77323;BME280;66384;51.052;9.850;2023-04-15T10:49:12;97804.61;;;7.93;73.40
77323;BME280;66384;51.052;9.850;2023-04-15T10:51:43;97804.41;;;7.92;73.41
77323;BME280;66384;51.052;9.850;2023-04-15T10:54:14;97806.73;;;7.95;73.64
77323;BME280;66384;51.052;9.850;2023-04-15T10:56:44;97808.32;;;7.98;73.58
77323;BME280;66384;51.052;9.850;2023-04-15T10:59:16;97802.70;;;8.00;73.55
77323;BME280;66384;51.052;9.850;2023-04-15T11:01:53;97808.75;;;8.02;73.45
77323;BME280;66384;51.052;9.850;2023-04-15T11:04:57;97806.23;;;8.04;73.88
77323;BME280;66384;51.052;9.850;2023-04-15T11:07:51;97808.84;;;8.06;73.80
77323;BME280;66384;51.052;9.850;2023-04-15T11:10:53;97808.31;;;8.05;73.67
77323;BME280;66384;51.052;9.850;2023-04-15T11:13:25;97813.35;;;8.01;73.69
77323;BME280;66384;51.052;9.850;2023-04-15T11:16:01;97815.70;;;7.98;73.91
77323;BME280;66384;51.052;9.850;2023-04-15T11:18:35;97817.19;;;7.96;73.84
77323;BME280;66384;51.052;9.850;2023-04-15T11:21:06;97819.42;;;7.97;74.01
77323;BME280;66384;51.052;9.850;2023-04-15T11:23:39;97826.40;;;7.96;73.85
77323;BME280;66384;51.052;9.850;2023-04-15T11:26:11;97824.63;;;7.92;73.91
77323;BME280;66384;51.052;9.850;2023-04-15T11:28:42;97826.48;;;7.91;74.15
77323;BME280;66384;51.052;9.850;2023-04-15T11:31:11;97828.00;;;7.90;74.12
77323;BME280;66384;51.052;9.850;2023-04-15T11:33:45;97834.31;;;7.89;74.10
77323;BME280;66384;51.052;9.850;2023-04-15T11:36:15;97833.96;;;7.89;74.21
77323;BME280;66384;51.052;9.850;2023-04-15T11:38:46;97836.09;;;7.92;74.25
77323;BME280;66384;51.052;9.850;2023-04-15T11:41:15;97840.95;;;7.95;74.12
77323;BME280;66384;51.052;9.850;2023-04-15T11:43:48;97843.95;;;7.98;74.24
77323;BME280;66384;51.052;9.850;2023-04-15T11:46:17;97845.06;;;8.03;74.02
77323;BME280;66384;51.052;9.850;2023-04-15T11:48:47;97848.04;;;8.05;73.90
77323;BME280;66384;51.052;9.850;2023-04-15T11:51:16;97848.73;;;8.06;74.13
77323;BME280;66384;51.052;9.850;2023-04-15T11:53:49;97853.41;;;8.09;73.94
77323;BME280;66384;51.052;9.850;2023-04-15T11:56:20;97854.30;;;8.10;73.76
77323;BME280;66384;51.052;9.850;2023-04-15T11:58:52;97851.72;;;8.09;73.76
77323;BME280;66384;51.052;9.850;2023-04-15T12:01:31;97855.30;;;8.09;73.84
77323;BME280;66384;51.052;9.850;2023-04-15T12:04:02;97854.15;;;8.11;74.03
77323;BME280;66384;51.052;9.850;2023-04-15T12:06:38;97855.91;;;8.13;73.83
77323;BME280;66384;51.052;9.850;2023-04-15T12:09:15;97855.96;;;8.15;73.92
77323;BME280;66384;51.052;9.850;2023-04-15T12:11:45;97856.69;;;8.17;73.92
77323;BME280;66384;51.052;9.850;2023-04-15T12:14:20;97855.45;;;8.15;73.70
77323;BME280;66384;51.052;9.850;2023-04-15T12:16:51;97857.33;;;8.15;73.92
77323;BME280;66384;51.052;9.850;2023-04-15T12:19:25;97857.64;;;8.13;73.83
77323;BME280;66384;51.052;9.850;2023-04-15T12:21:59;97862.30;;;8.15;73.95
77323;BME280;66384;51.052;9.850;2023-04-15T12:24:29;97862.19;;;8.18;74.09
77323;BME280;66384;51.052;9.850;2023-04-15T12:27:02;97866.02;;;8.21;74.17
77323;BME280;66384;51.052;9.850;2023-04-15T12:29:33;97866.94;;;8.24;73.90
77323;BME280;66384;51.052;9.850;2023-04-15T12:32:07;97871.59;;;8.26;74.03
77323;BME280;66384;51.052;9.850;2023-04-15T12:34:37;97872.96;;;8.25;74.03
77323;BME280;66384;51.052;9.850;2023-04-15T12:37:09;97873.41;;;8.22;73.89
77323;BME280;66384;51.052;9.850;2023-04-15T12:39:41;97873.83;;;8.18;73.97
77323;BME280;66384;51.052;9.850;2023-04-15T12:42:11;97877.91;;;8.16;73.91
77323;BME280;66384;51.052;9.850;2023-04-15T12:44:41;97877.89;;;8.15;74.14
77323;BME280;66384;51.052;9.850;2023-04-15T12:47:11;97883.53;;;8.15;74.02
77323;BME280;66384;51.052;9.850;2023-04-15T12:49:41;97888.36;;;8.16;73.92
77323;BME280;66384;51.052;9.850;2023-04-15T12:52:11;97890.44;;;8.17;73.90
77323;BME280;66384;51.052;9.850;2023-04-15T12:54:40;97895.92;;;8.17;74.12
77323;BME280;66384;51.052;9.850;2023-04-15T12:57:09;97896.95;;;8.17;73.77
77323;BME280;66384;51.052;9.850;2023-04-15T12:59:39;97900.02;;;8.17;73.60
77323;BME280;66384;51.052;9.850;2023-04-15T13:02:08;97900.75;;;8.19;73.90
77323;BME280;66384;51.052;9.850;2023-04-15T13:04:37;97904.09;;;8.23;73.73
77323;BME280;66384;51.052;9.850;2023-04-15T13:07:06;97907.77;;;8.26;73.78
77323;BME280;66384;51.052;9.850;2023-04-15T13:09:36;97913.26;;;8.27;73.91
77323;BME280;66384;51.052;9.850;2023-04-15T13:12:06;97916.67;;;8.26;73.59
77323;BME280;66384;51.052;9.850;2023-04-15T13:14:36;97918.16;;;8.24;73.75
77323;BME280;66384;51.052;9.850;2023-04-15T13:17:05;97920.21;;;8.24;73.68
77323;BME280;66384;51.052;9.850;2023-04-15T13:19:37;97920.11;;;8.19;73.67
77323;BME280;66384;51.052;9.850;2023-04-15T13:22:07;97918.15;;;8.16;73.78
77323;BME280;66384;51.052;9.850;2023-04-15T13:24:36;97924.28;;;8.15;73.74
77323;BME280;66384;51.052;9.850;2023-04-15T13:27:07;97928.05;;;8.14;73.82